sensor_id;sensor_type;location;lat;lon;timestamp;P1;durP1;ratioP1;P2;durP2;ratioP2
9918;SDS011;4998;51.024;13.828;2023-04-25T00:01:57;2.83;;;2.53;;
9918;SDS011;4998;51.024;13.828;2023-04-25T00:04:24;2.57;;;2.37;;
9918;SDS011;4998;51.024;13.828;2023-04-25T00:06:52;2.73;;;2.40;;
9918;SDS011;4998;51.024;13.828;2023-04-25T00:09:19;2.90;;;2.50;;
9918;SDS011;4998;51.024;13.828;2023-04-25T00:11:48;4.20;;;2.33;;
9918;SDS011;4998;51.024;13.828;2023-04-25T00:14:15;3.00;;;2.60;;
9918;SDS011;4998;51.024;13.828;2023-04-25T00:16:42;2.03;;;1.80;;
9918;SDS011;4998;51.024;13.828;2023-04-25T00:19:09;2.10;;;1.90;;
9918;SDS011;4998;51.024;13.828;2023-04-25T00:21:37;2.63;;;2.03;;
9918;SDS011;4998;51.024;13.828;2023-04-25T00:24:06;2.03;;;1.83;;
9918;SDS011;4998;51.024;13.828;2023-04-25T00:26:33;2.00;;;1.70;;
9918;SDS011;4998;51.024;13.828;2023-04-25T00:29:02;2.00;;;1.90;;
9918;SDS011;4998;51.024;13.828;2023-04-25T00:31:29;2.07;;;1.87;;
9918;SDS011;4998;51.024;13.828;2023-04-25T00:33:56;5.90;;;1.90;;
9918;SDS011;4998;51.024;13.828;2023-04-25T00:36:24;3.23;;;2.20;;
9918;SDS011;4998;51.024;13.828;2023-04-25T00:38:51;2.30;;;2.10;;
9918;SDS011;4998;51.024;13.828;2023-04-25T00:41:20;2.23;;;2.10;;
9918;SDS011;4998;51.024;13.828;2023-04-25T00:43:47;2.30;;;2.10;;
9918;SDS011;4998;51.024;13.828;2023-04-25T00:46:16;2.30;;;2.10;;
9918;SDS011;4998;51.024;13.828;2023-04-25T00:48:43;1.73;;;1.63;;
9918;SDS011;4998;51.024;13.828;2023-04-25T00:51:11;2.50;;;2.20;;
9918;SDS011;4998;51.024;13.828;2023-04-25T00:53:40;1.87;;;1.77;;
9918;SDS011;4998;51.024;13.828;2023-04-25T00:59:29;2.20;;;2.00;;
9918;SDS011;4998;51.024;13.828;2023-04-25T01:01:58;2.10;;;2.00;;
9918;SDS011;4998;51.024;13.828;2023-04-25T01:04:25;2.27;;;2.00;;
9918;SDS011;4998;51.024;13.828;2023-04-25T01:06:54;1.90;;;1.80;;
9918;SDS011;4998;51.024;13.828;2023-04-25T01:09:22;3.07;;;2.30;;
9918;SDS011;4998;51.024;13.828;2023-04-25T01:11:49;2.33;;;2.10;;
9918;SDS011;4998;51.024;13.828;2023-04-25T01:14:16;2.13;;;2.00;;
9918;SDS011;4998;51.024;13.828;2023-04-25T01:16:44;2.43;;;2.27;;
9918;SDS011;4998;51.024;13.828;2023-04-25T01:19:12;2.47;;;2.20;;
9918;SDS011;4998;51.024;13.828;2023-04-25T01:21:44;2.47;;;2.27;;
9918;SDS011;4998;51.024;13.828;2023-04-25T01:24:12;1.90;;;1.80;;
9918;SDS011;4998;51.024;13.828;2023-04-25T01:26:40;2.67;;;2.43;;
9918;SDS011;4998;51.024;13.828;2023-04-25T01:29:09;2.40;;;2.20;;
9918;SDS011;4998;51.024;13.828;2023-04-25T01:31:37;2.50;;;2.30;;
9918;SDS011;4998;51.024;13.828;2023-04-25T01:34:04;2.10;;;2.00;;
9918;SDS011;4998;51.024;13.828;2023-04-25T01:36:31;2.53;;;2.33;;
9918;SDS011;4998;51.024;13.828;2023-04-25T01:39:00;2.77;;;2.07;;
9918;SDS011;4998;51.024;13.828;2023-04-25T01:41:28;2.30;;;2.10;;
9918;SDS011;4998;51.024;13.828;2023-04-25T01:43:55;2.50;;;2.30;;
9918;SDS011;4998;51.024;13.828;2023-04-25T01:46:23;2.20;;;2.00;;
9918;SDS011;4998;51.024;13.828;2023-04-25T01:48:50;4.33;;;2.53;;
9918;SDS011;4998;51.024;13.828;2023-04-25T01:51:17;2.70;;;2.50;;
9918;SDS011;4998;51.024;13.828;2023-04-25T01:53:44;2.83;;;2.50;;
9918;SDS011;4998;51.024;13.828;2023-04-25T01:56:13;2.63;;;2.40;;
9918;SDS011;4998;51.024;13.828;2023-04-25T01:58:40;2.60;;;2.40;;
9918;SDS011;4998;51.024;13.828;2023-04-25T02:01:07;2.50;;;2.30;;
9918;SDS011;4998;51.024;13.828;2023-04-25T02:03:34;2.73;;;2.50;;
9918;SDS011;4998;51.024;13.828;2023-04-25T02:06:02;2.40;;;2.20;;
9918;SDS011;4998;51.024;13.828;2023-04-25T02:08:29;2.60;;;2.40;;
9918;SDS011;4998;51.024;13.828;2023-04-25T02:10:56;2.80;;;2.20;;
9918;SDS011;4998;51.024;13.828;2023-04-25T02:13:24;3.33;;;2.63;;
9918;SDS011;4998;51.024;13.828;2023-04-25T02:15:51;2.43;;;2.20;;
9918;SDS011;4998;51.024;13.828;2023-04-25T02:18:18;4.07;;;2.57;;
9918;SDS011;4998;51.024;13.828;2023-04-25T02:20:46;2.70;;;2.50;;
9918;SDS011;4998;51.024;13.828;2023-04-25T02:23:13;2.80;;;2.60;;
9918;SDS011;4998;51.024;13.828;2023-04-25T02:25:41;2.60;;;2.27;;
9918;SDS011;4998;51.024;13.828;2023-04-25T02:28:07;2.70;;;2.50;;
9918;SDS011;4998;51.024;13.828;2023-04-25T02:30:36;2.43;;;2.23;;
9918;SDS011;4998;51.024;13.828;2023-04-25T02:33:04;2.83;;;2.60;;
9918;SDS011;4998;51.024;13.828;2023-04-25T02:35:31;2.83;;;2.63;;
9918;SDS011;4998;51.024;13.828;2023-04-25T02:37:58;3.50;;;2.60;;
9918;SDS011;4998;51.024;13.828;2023-04-25T02:40:25;2.40;;;2.20;;
9918;SDS011;4998;51.024;13.828;2023-04-25T02:42:52;2.70;;;2.50;;
9918;SDS011;4998;51.024;13.828;2023-04-25T02:45:19;4.83;;;2.70;;
9918;SDS011;4998;51.024;13.828;2023-04-25T02:47:47;3.23;;;2.10;;
9918;SDS011;4998;51.024;13.828;2023-04-25T02:50:14;3.37;;;2.50;;
9918;SDS011;4998;51.024;13.828;2023-04-25T02:52:43;2.97;;;2.73;;
9918;SDS011;4998;51.024;13.828;2023-04-25T02:55:10;2.63;;;2.43;;
9918;SDS011;4998;51.024;13.828;2023-04-25T02:57:38;2.70;;;2.50;;
9918;SDS011;4998;51.024;13.828;2023-04-25T03:00:06;2.40;;;2.20;;
9918;SDS011;4998;51.024;13.828;2023-04-25T03:02:33;2.50;;;2.40;;
9918;SDS011;4998;51.024;13.828;2023-04-25T03:05:02;2.70;;;2.50;;
9918;SDS011;4998;51.024;13.828;2023-04-25T03:07:29;3.27;;;2.77;;
9918;SDS011;4998;51.024;13.828;2023-04-25T03:09:57;3.30;;;2.97;;
9918;SDS011;4998;51.024;13.828;2023-04-25T03:12:24;4.87;;;3.30;;
9918;SDS011;4998;51.024;13.828;2023-04-25T03:14:51;2.90;;;2.70;;
9918;SDS011;4998;51.024;13.828;2023-04-25T03:17:18;5.40;;;3.10;;
9918;SDS011;4998;51.024;13.828;2023-04-25T03:19:45;3.50;;;3.20;;
9918;SDS011;4998;51.024;13.828;2023-04-25T03:22:13;2.87;;;2.43;;
9918;SDS011;4998;51.024;13.828;2023-04-25T03:24:40;3.03;;;2.83;;
9918;SDS011;4998;51.024;13.828;2023-04-25T03:27:08;3.83;;;3.00;;
9918;SDS011;4998;51.024;13.828;2023-04-25T03:29:35;3.30;;;2.90;;
9918;SDS011;4998;51.024;13.828;2023-04-25T03:32:02;3.97;;;3.40;;
9918;SDS011;4998;51.024;13.828;2023-04-25T03:34:29;3.73;;;3.10;;
9918;SDS011;4998;51.024;13.828;2023-04-25T03:36:56;4.43;;;3.20;;
9918;SDS011;4998;51.024;13.828;2023-04-25T03:39:25;3.50;;;3.20;;
9918;SDS011;4998;51.024;13.828;2023-04-25T03:41:52;7.37;;;3.50;;
9918;SDS011;4998;51.024;13.828;2023-04-25T03:44:19;3.67;;;3.17;;
9918;SDS011;4998;51.024;13.828;2023-04-25T03:46:46;6.33;;;3.57;;
9918;SDS011;4998;51.024;13.828;2023-04-25T03:49:13;4.47;;;3.60;;
9918;SDS011;4998;51.024;13.828;2023-04-25T03:51:40;4.53;;;3.27;;
9918;SDS011;4998;51.024;13.828;2023-04-25T03:54:07;6.17;;;3.70;;
9918;SDS011;4998;51.024;13.828;2023-04-25T03:56:36;4.23;;;3.83;;
9918;SDS011;4998;51.024;13.828;2023-04-25T03:59:03;3.50;;;3.20;;
9918;SDS011;4998;51.024;13.828;2023-04-25T04:01:30;6.43;;;3.40;;
9918;SDS011;4998;51.024;13.828;2023-04-25T04:03:57;3.87;;;3.40;;
9918;SDS011;4998;51.024;13.828;2023-04-25T04:06:24;3.43;;;3.07;;
9918;SDS011;4998;51.024;13.828;2023-04-25T04:08:51;5.10;;;3.87;;
9918;SDS011;4998;51.024;13.828;2023-04-25T04:11:19;3.97;;;3.67;;
9918;SDS011;4998;51.024;13.828;2023-04-25T04:13:47;3.13;;;2.93;;
9918;SDS011;4998;51.024;13.828;2023-04-25T04:16:14;4.80;;;3.57;;
9918;SDS011;4998;51.024;13.828;2023-04-25T04:18:42;4.03;;;3.63;;
9918;SDS011;4998;51.024;13.828;2023-04-25T04:21:09;4.10;;;3.40;;
9918;SDS011;4998;51.024;13.828;2023-04-25T04:23:36;4.10;;;3.77;;
9918;SDS011;4998;51.024;13.828;2023-04-25T04:26:03;5.83;;;3.30;;
9918;SDS011;4998;51.024;13.828;2023-04-25T04:28:32;5.70;;;3.90;;
9918;SDS011;4998;51.024;13.828;2023-04-25T04:31:00;5.03;;;3.47;;
9918;SDS011;4998;51.024;13.828;2023-04-25T04:33:28;3.50;;;3.17;;
9918;SDS011;4998;51.024;13.828;2023-04-25T04:35:56;3.90;;;3.23;;
9918;SDS011;4998;51.024;13.828;2023-04-25T04:38:23;3.60;;;3.30;;
9918;SDS011;4998;51.024;13.828;2023-04-25T04:40:50;4.33;;;3.40;;
9918;SDS011;4998;51.024;13.828;2023-04-25T04:43:17;4.10;;;3.70;;
9918;SDS011;4998;51.024;13.828;2023-04-25T04:45:44;3.70;;;3.10;;
9918;SDS011;4998;51.024;13.828;2023-04-25T04:48:14;4.53;;;3.73;;
9918;SDS011;4998;51.024;13.828;2023-04-25T04:50:42;4.10;;;3.70;;
9918;SDS011;4998;51.024;13.828;2023-04-25T04:53:10;4.80;;;3.50;;
9918;SDS011;4998;51.024;13.828;2023-04-25T04:55:38;4.60;;;3.50;;
9918;SDS011;4998;51.024;13.828;2023-04-25T04:58:06;4.57;;;3.20;;
9918;SDS011;4998;51.024;13.828;2023-04-25T05:00:33;4.33;;;3.70;;
9918;SDS011;4998;51.024;13.828;2023-04-25T05:03:00;4.40;;;3.67;;
9918;SDS011;4998;51.024;13.828;2023-04-25T05:05:29;3.87;;;3.57;;
9918;SDS011;4998;51.024;13.828;2023-04-25T05:07:56;3.73;;;3.43;;
9918;SDS011;4998;51.024;13.828;2023-04-25T05:10:23;3.77;;;3.37;;
9918;SDS011;4998;51.024;13.828;2023-04-25T05:12:50;4.23;;;3.80;;
9918;SDS011;4998;51.024;13.828;2023-04-25T05:15:17;4.17;;;3.77;;
9918;SDS011;4998;51.024;13.828;2023-04-25T05:17:44;7.57;;;4.20;;
9918;SDS011;4998;51.024;13.828;2023-04-25T05:20:11;4.53;;;3.67;;
9918;SDS011;4998;51.024;13.828;2023-04-25T05:22:40;3.63;;;3.33;;
9918;SDS011;4998;51.024;13.828;2023-04-25T05:25:08;5.00;;;3.67;;
9918;SDS011;4998;51.024;13.828;2023-04-25T05:27:36;4.07;;;3.70;;
9918;SDS011;4998;51.024;13.828;2023-04-25T05:30:03;3.83;;;3.53;;
9918;SDS011;4998;51.024;13.828;2023-04-25T05:32:32;3.80;;;3.50;;
9918;SDS011;4998;51.024;13.828;2023-04-25T05:34:59;4.20;;;3.80;;
9918;SDS011;4998;51.024;13.828;2023-04-25T05:37:26;6.93;;;4.90;;
9918;SDS011;4998;51.024;13.828;2023-04-25T05:39:54;5.37;;;3.80;;
9918;SDS011;4998;51.024;13.828;2023-04-25T05:42:21;4.13;;;3.73;;
9918;SDS011;4998;51.024;13.828;2023-04-25T05:44:48;4.93;;;3.50;;
9918;SDS011;4998;51.024;13.828;2023-04-25T05:47:16;4.93;;;4.23;;
9918;SDS011;4998;51.024;13.828;2023-04-25T05:49:44;3.63;;;3.33;;
9918;SDS011;4998;51.024;13.828;2023-04-25T05:52:11;5.30;;;3.40;;
9918;SDS011;4998;51.024;13.828;2023-04-25T05:54:40;7.60;;;3.70;;
9918;SDS011;4998;51.024;13.828;2023-04-25T05:57:08;5.20;;;3.33;;
9918;SDS011;4998;51.024;13.828;2023-04-25T05:59:44;4.00;;;3.50;;
9918;SDS011;4998;51.024;13.828;2023-04-25T06:02:11;3.97;;;3.57;;
9918;SDS011;4998;51.024;13.828;2023-04-25T06:04:38;3.80;;;3.10;;
9918;SDS011;4998;51.024;13.828;2023-04-25T06:07:05;5.80;;;3.50;;
9918;SDS011;4998;51.024;13.828;2023-04-25T06:09:32;4.77;;;3.50;;
9918;SDS011;4998;51.024;13.828;2023-04-25T06:11:59;6.63;;;3.77;;
9918;SDS011;4998;51.024;13.828;2023-04-25T06:14:28;5.03;;;3.60;;
9918;SDS011;4998;51.024;13.828;2023-04-25T06:16:55;6.53;;;4.07;;
9918;SDS011;4998;51.024;13.828;2023-04-25T06:19:22;4.60;;;4.00;;
9918;SDS011;4998;51.024;13.828;2023-04-25T06:21:49;5.77;;;3.53;;
9918;SDS011;4998;51.024;13.828;2023-04-25T06:24:16;5.73;;;3.73;;
9918;SDS011;4998;51.024;13.828;2023-04-25T06:26:43;7.10;;;3.90;;
9918;SDS011;4998;51.024;13.828;2023-04-25T06:29:10;4.87;;;3.97;;
9918;SDS011;4998;51.024;13.828;2023-04-25T06:31:38;9.00;;;4.23;;
9918;SDS011;4998;51.024;13.828;2023-04-25T06:34:05;6.10;;;4.47;;
9918;SDS011;4998;51.024;13.828;2023-04-25T06:36:32;5.20;;;4.70;;
9918;SDS011;4998;51.024;13.828;2023-04-25T06:38:59;4.60;;;4.00;;
9918;SDS011;4998;51.024;13.828;2023-04-25T06:41:27;6.17;;;4.00;;
9918;SDS011;4998;51.024;13.828;2023-04-25T06:43:54;12.47;;;4.63;;
9918;SDS011;4998;51.024;13.828;2023-04-25T06:46:21;4.80;;;4.40;;
9918;SDS011;4998;51.024;13.828;2023-04-25T06:48:50;6.17;;;4.23;;
9918;SDS011;4998;51.024;13.828;2023-04-25T06:51:17;4.20;;;3.77;;
9918;SDS011;4998;51.024;13.828;2023-04-25T06:53:44;5.20;;;4.70;;
9918;SDS011;4998;51.024;13.828;2023-04-25T06:56:11;7.10;;;4.60;;
9918;SDS011;4998;51.024;13.828;2023-04-25T06:58:38;7.27;;;4.30;;
9918;SDS011;4998;51.024;13.828;2023-04-25T07:01:05;12.63;;;4.67;;
9918;SDS011;4998;51.024;13.828;2023-04-25T07:03:32;5.43;;;4.20;;
9918;SDS011;4998;51.024;13.828;2023-04-25T07:06:01;5.97;;;4.20;;
9918;SDS011;4998;51.024;13.828;2023-04-25T07:08:28;6.83;;;4.30;;
9918;SDS011;4998;51.024;13.828;2023-04-25T07:10:55;4.60;;;3.90;;
9918;SDS011;4998;51.024;13.828;2023-04-25T07:13:22;4.97;;;4.20;;
9918;SDS011;4998;51.024;13.828;2023-04-25T07:15:49;5.73;;;3.90;;
9918;SDS011;4998;51.024;13.828;2023-04-25T07:18:16;6.60;;;4.27;;
9918;SDS011;4998;51.024;13.828;2023-04-25T07:20:43;6.07;;;5.00;;
9918;SDS011;4998;51.024;13.828;2023-04-25T07:23:12;4.20;;;3.80;;
9918;SDS011;4998;51.024;13.828;2023-04-25T07:25:39;5.37;;;4.20;;
9918;SDS011;4998;51.024;13.828;2023-04-25T07:28:06;5.23;;;4.00;;
9918;SDS011;4998;51.024;13.828;2023-04-25T07:30:33;8.07;;;3.97;;
9918;SDS011;4998;51.024;13.828;2023-04-25T07:33:01;8.53;;;4.53;;
9918;SDS011;4998;51.024;13.828;2023-04-25T07:35:29;5.10;;;4.13;;
9918;SDS011;4998;51.024;13.828;2023-04-25T07:37:56;6.03;;;4.30;;
9918;SDS011;4998;51.024;13.828;2023-04-25T07:40:25;6.00;;;3.33;;
9918;SDS011;4998;51.024;13.828;2023-04-25T07:42:52;4.73;;;4.20;;
9918;SDS011;4998;51.024;13.828;2023-04-25T07:45:19;5.63;;;3.73;;
9918;SDS011;4998;51.024;13.828;2023-04-25T07:47:46;4.03;;;3.70;;
9918;SDS011;4998;51.024;13.828;2023-04-25T07:50:14;4.83;;;3.70;;
9918;SDS011;4998;51.024;13.828;2023-04-25T07:52:41;4.90;;;3.80;;
9918;SDS011;4998;51.024;13.828;2023-04-25T07:55:08;4.30;;;3.20;;
9918;SDS011;4998;51.024;13.828;2023-04-25T07:57:37;4.10;;;3.13;;
9918;SDS011;4998;51.024;13.828;2023-04-25T08:00:05;5.23;;;3.57;;
9918;SDS011;4998;51.024;13.828;2023-04-25T08:02:34;4.57;;;3.40;;
9918;SDS011;4998;51.024;13.828;2023-04-25T08:05:02;4.47;;;3.40;;
9918;SDS011;4998;51.024;13.828;2023-04-25T08:07:29;3.43;;;3.10;;
9918;SDS011;4998;51.024;13.828;2023-04-25T08:09:56;4.73;;;3.43;;
9918;SDS011;4998;51.024;13.828;2023-04-25T08:12:23;3.50;;;2.93;;
9918;SDS011;4998;51.024;13.828;2023-04-25T08:14:52;2.97;;;2.60;;
9918;SDS011;4998;51.024;13.828;2023-04-25T08:17:19;4.60;;;3.30;;
9918;SDS011;4998;51.024;13.828;2023-04-25T08:19:46;4.33;;;2.97;;
9918;SDS011;4998;51.024;13.828;2023-04-25T08:22:13;3.47;;;2.57;;
9918;SDS011;4998;51.024;13.828;2023-04-25T08:24:41;4.90;;;3.00;;
9918;SDS011;4998;51.024;13.828;2023-04-25T08:27:08;2.47;;;2.27;;
9918;SDS011;4998;51.024;13.828;2023-04-25T08:29:35;3.50;;;3.20;;
9918;SDS011;4998;51.024;13.828;2023-04-25T08:32:03;5.20;;;2.97;;
9918;SDS011;4998;51.024;13.828;2023-04-25T08:34:31;4.90;;;3.10;;
9918;SDS011;4998;51.024;13.828;2023-04-25T08:36:58;4.00;;;3.00;;
9918;SDS011;4998;51.024;13.828;2023-04-25T08:39:25;2.60;;;2.40;;
9918;SDS011;4998;51.024;13.828;2023-04-25T08:41:52;3.10;;;2.60;;
9918;SDS011;4998;51.024;13.828;2023-04-25T08:44:19;2.50;;;2.10;;
9918;SDS011;4998;51.024;13.828;2023-04-25T08:46:48;2.50;;;2.30;;
9918;SDS011;4998;51.024;13.828;2023-04-25T08:49:17;5.70;;;2.50;;
9918;SDS011;4998;51.024;13.828;2023-04-25T08:51:45;2.37;;;2.17;;
9918;SDS011;4998;51.024;13.828;2023-04-25T08:54:13;2.97;;;2.30;;
9918;SDS011;4998;51.024;13.828;2023-04-25T08:56:41;7.00;;;2.50;;
9918;SDS011;4998;51.024;13.828;2023-04-25T08:59:11;4.33;;;2.50;;
9918;SDS011;4998;51.024;13.828;2023-04-25T09:01:38;2.57;;;2.37;;
9918;SDS011;4998;51.024;13.828;2023-04-25T09:04:06;2.73;;;2.30;;
9918;SDS011;4998;51.024;13.828;2023-04-25T09:06:34;3.47;;;2.43;;
9918;SDS011;4998;51.024;13.828;2023-04-25T09:09:02;4.23;;;2.63;;
9918;SDS011;4998;51.024;13.828;2023-04-25T09:11:30;3.50;;;2.50;;
9918;SDS011;4998;51.024;13.828;2023-04-25T09:14:11;3.27;;;2.97;;
9918;SDS011;4998;51.024;13.828;2023-04-25T09:16:58;4.50;;;3.00;;
9918;SDS011;4998;51.024;13.828;2023-04-25T09:19:28;3.30;;;3.00;;
9918;SDS011;4998;51.024;13.828;2023-04-25T09:21:58;3.90;;;2.90;;
9918;SDS011;4998;51.024;13.828;2023-04-25T09:24:31;5.93;;;3.30;;
9918;SDS011;4998;51.024;13.828;2023-04-25T09:26:59;7.03;;;3.10;;
9918;SDS011;4998;51.024;13.828;2023-04-25T09:29:29;5.40;;;3.67;;
9918;SDS011;4998;51.024;13.828;2023-04-25T09:32:10;5.57;;;3.23;;
9918;SDS011;4998;51.024;13.828;2023-04-25T09:34:46;6.93;;;3.20;;
9918;SDS011;4998;51.024;13.828;2023-04-25T09:37:20;4.57;;;3.27;;
9918;SDS011;4998;51.024;13.828;2023-04-25T09:39:48;6.13;;;3.23;;
9918;SDS011;4998;51.024;13.828;2023-04-25T09:42:16;7.10;;;3.70;;
9918;SDS011;4998;51.024;13.828;2023-04-25T09:44:44;5.93;;;3.17;;
9918;SDS011;4998;51.024;13.828;2023-04-25T09:47:12;3.60;;;2.77;;
9918;SDS011;4998;51.024;13.828;2023-04-25T09:49:40;2.50;;;2.30;;
9918;SDS011;4998;51.024;13.828;2023-04-25T09:52:08;2.70;;;2.50;;
9918;SDS011;4998;51.024;13.828;2023-04-25T09:54:41;4.13;;;3.70;;
9918;SDS011;4998;51.024;13.828;2023-04-25T09:57:10;3.70;;;3.37;;
9918;SDS011;4998;51.024;13.828;2023-04-25T09:59:39;3.90;;;3.43;;
9918;SDS011;4998;51.024;13.828;2023-04-25T10:02:09;3.40;;;3.10;;
9918;SDS011;4998;51.024;13.828;2023-04-25T10:04:38;6.60;;;3.40;;
9918;SDS011;4998;51.024;13.828;2023-04-25T10:07:05;4.87;;;3.20;;
9918;SDS011;4998;51.024;13.828;2023-04-25T10:09:35;3.43;;;3.13;;
9918;SDS011;4998;51.024;13.828;2023-04-25T10:12:06;7.63;;;3.90;;
9918;SDS011;4998;51.024;13.828;2023-04-25T10:14:34;5.20;;;3.60;;
9918;SDS011;4998;51.024;13.828;2023-04-25T10:17:01;5.13;;;3.70;;
9918;SDS011;4998;51.024;13.828;2023-04-25T10:19:29;4.60;;;3.30;;
9918;SDS011;4998;51.024;13.828;2023-04-25T10:21:58;8.77;;;3.70;;
9918;SDS011;4998;51.024;13.828;2023-04-25T10:24:33;4.20;;;3.73;;
9918;SDS011;4998;51.024;13.828;2023-04-25T10:27:02;5.80;;;3.17;;
9918;SDS011;4998;51.024;13.828;2023-04-25T10:29:31;4.37;;;3.17;;
9918;SDS011;4998;51.024;13.828;2023-04-25T10:31:59;3.13;;;2.90;;
9918;SDS011;4998;51.024;13.828;2023-04-25T10:34:37;3.40;;;2.50;;
9918;SDS011;4998;51.024;13.828;2023-04-25T10:37:08;3.50;;;2.60;;
9918;SDS011;4998;51.024;13.828;2023-04-25T10:39:36;4.33;;;3.10;;
9918;SDS011;4998;51.024;13.828;2023-04-25T10:42:05;4.30;;;3.20;;
9918;SDS011;4998;51.024;13.828;2023-04-25T10:44:34;3.60;;;3.07;;
9918;SDS011;4998;51.024;13.828;2023-04-25T10:47:03;3.50;;;3.17;;
9918;SDS011;4998;51.024;13.828;2023-04-25T10:49:35;3.67;;;3.00;;
9918;SDS011;4998;51.024;13.828;2023-04-25T10:52:12;5.53;;;3.20;;
9918;SDS011;4998;51.024;13.828;2023-04-25T10:54:42;2.87;;;2.50;;
9918;SDS011;4998;51.024;13.828;2023-04-25T10:57:32;4.53;;;2.40;;
9918;SDS011;4998;51.024;13.828;2023-04-25T11:00:08;2.60;;;2.33;;
9918;SDS011;4998;51.024;13.828;2023-04-25T11:02:37;3.90;;;3.13;;
9918;SDS011;4998;51.024;13.828;2023-04-25T11:05:08;4.67;;;3.20;;
9918;SDS011;4998;51.024;13.828;2023-04-25T11:07:37;4.80;;;3.23;;
9918;SDS011;4998;51.024;13.828;2023-04-25T11:10:10;5.40;;;3.10;;
9918;SDS011;4998;51.024;13.828;2023-04-25T11:12:37;4.80;;;3.47;;
9918;SDS011;4998;51.024;13.828;2023-04-25T11:15:05;5.00;;;3.13;;
9918;SDS011;4998;51.024;13.828;2023-04-25T11:17:34;4.40;;;3.10;;
9918;SDS011;4998;51.024;13.828;2023-04-25T11:20:02;5.53;;;3.87;;
9918;SDS011;4998;51.024;13.828;2023-04-25T11:22:36;4.07;;;3.63;;
9918;SDS011;4998;51.024;13.828;2023-04-25T11:25:06;9.40;;;4.10;;
9918;SDS011;4998;51.024;13.828;2023-04-25T11:27:34;5.57;;;4.07;;
9918;SDS011;4998;51.024;13.828;2023-04-25T11:30:13;4.90;;;3.63;;
9918;SDS011;4998;51.024;13.828;2023-04-25T11:32:41;5.37;;;4.13;;
9918;SDS011;4998;51.024;13.828;2023-04-25T11:35:09;6.80;;;3.60;;
9918;SDS011;4998;51.024;13.828;2023-04-25T11:37:36;4.87;;;3.50;;
9918;SDS011;4998;51.024;13.828;2023-04-25T11:40:06;5.10;;;3.40;;
9918;SDS011;4998;51.024;13.828;2023-04-25T11:42:35;6.80;;;3.33;;
9918;SDS011;4998;51.024;13.828;2023-04-25T11:45:03;4.33;;;2.50;;
9918;SDS011;4998;51.024;13.828;2023-04-25T11:47:33;5.07;;;2.77;;
9918;SDS011;4998;51.024;13.828;2023-04-25T11:50:00;5.83;;;2.77;;
9918;SDS011;4998;51.024;13.828;2023-04-25T11:52:35;3.90;;;2.43;;
9918;SDS011;4998;51.024;13.828;2023-04-25T11:55:06;3.73;;;2.30;;
9918;SDS011;4998;51.024;13.828;2023-04-25T11:57:35;1.73;;;1.60;;
9918;SDS011;4998;51.024;13.828;2023-04-25T12:00:05;2.20;;;1.73;;
9918;SDS011;4998;51.024;13.828;2023-04-25T12:02:39;2.17;;;1.63;;
9918;SDS011;4998;51.024;13.828;2023-04-25T12:05:07;2.63;;;2.23;;
9918;SDS011;4998;51.024;13.828;2023-04-25T12:07:34;2.13;;;1.80;;
9918;SDS011;4998;51.024;13.828;2023-04-25T12:10:06;2.43;;;1.63;;
9918;SDS011;4998;51.024;13.828;2023-04-25T12:12:34;2.77;;;1.90;;
9918;SDS011;4998;51.024;13.828;2023-04-25T12:15:12;2.30;;;1.53;;
9918;SDS011;4998;51.024;13.828;2023-04-25T12:17:46;1.80;;;1.67;;
9918;SDS011;4998;51.024;13.828;2023-04-25T12:20:14;3.87;;;1.70;;
9918;SDS011;4998;51.024;13.828;2023-04-25T12:22:42;5.53;;;2.10;;
9918;SDS011;4998;51.024;13.828;2023-04-25T12:25:11;4.67;;;2.50;;
9918;SDS011;4998;51.024;13.828;2023-04-25T12:27:39;3.80;;;2.43;;
9918;SDS011;4998;51.024;13.828;2023-04-25T12:30:09;4.07;;;2.23;;
9918;SDS011;4998;51.024;13.828;2023-04-25T12:32:36;5.00;;;2.13;;
9918;SDS011;4998;51.024;13.828;2023-04-25T12:35:05;2.73;;;2.10;;
9918;SDS011;4998;51.024;13.828;2023-04-25T12:37:33;3.80;;;2.00;;
9918;SDS011;4998;51.024;13.828;2023-04-25T12:40:00;3.60;;;2.20;;
9918;SDS011;4998;51.024;13.828;2023-04-25T12:42:29;6.50;;;2.80;;
9918;SDS011;4998;51.024;13.828;2023-04-25T12:44:56;5.73;;;2.60;;
9918;SDS011;4998;51.024;13.828;2023-04-25T12:47:23;4.87;;;2.47;;
9918;SDS011;4998;51.024;13.828;2023-04-25T12:49:51;5.47;;;2.60;;
9918;SDS011;4998;51.024;13.828;2023-04-25T12:52:20;5.67;;;2.57;;
9918;SDS011;4998;51.024;13.828;2023-04-25T12:54:47;5.60;;;2.37;;
9918;SDS011;4998;51.024;13.828;2023-04-25T12:57:14;6.83;;;2.70;;
9918;SDS011;4998;51.024;13.828;2023-04-25T12:59:41;6.43;;;2.60;;
9918;SDS011;4998;51.024;13.828;2023-04-25T13:02:09;6.73;;;3.30;;
9918;SDS011;4998;51.024;13.828;2023-04-25T13:04:36;6.70;;;3.20;;
9918;SDS011;4998;51.024;13.828;2023-04-25T13:07:03;8.23;;;2.93;;
9918;SDS011;4998;51.024;13.828;2023-04-25T13:09:31;4.13;;;2.63;;
9918;SDS011;4998;51.024;13.828;2023-04-25T13:11:59;6.07;;;2.77;;
9918;SDS011;4998;51.024;13.828;2023-04-25T13:14:26;5.70;;;2.93;;
9918;SDS011;4998;51.024;13.828;2023-04-25T13:16:54;10.03;;;3.13;;
9918;SDS011;4998;51.024;13.828;2023-04-25T13:19:21;10.90;;;3.23;;
9918;SDS011;4998;51.024;13.828;2023-04-25T13:21:47;10.47;;;3.70;;
9918;SDS011;4998;51.024;13.828;2023-04-25T13:24:15;7.97;;;3.07;;
9918;SDS011;4998;51.024;13.828;2023-04-25T13:26:43;7.20;;;3.93;;
9918;SDS011;4998;51.024;13.828;2023-04-25T13:29:10;8.10;;;2.90;;
9918;SDS011;4998;51.024;13.828;2023-04-25T13:31:38;4.77;;;2.80;;
9918;SDS011;4998;51.024;13.828;2023-04-25T13:34:05;14.00;;;4.63;;
9918;SDS011;4998;51.024;13.828;2023-04-25T13:36:32;8.83;;;3.50;;
9918;SDS011;4998;51.024;13.828;2023-04-25T13:38:59;5.53;;;3.13;;
9918;SDS011;4998;51.024;13.828;2023-04-25T13:41:26;15.33;;;3.53;;
9918;SDS011;4998;51.024;13.828;2023-04-25T13:43:55;8.70;;;3.60;;
9918;SDS011;4998;51.024;13.828;2023-04-25T13:46:22;9.33;;;3.90;;
9918;SDS011;4998;51.024;13.828;2023-04-25T13:48:49;16.90;;;3.67;;
9918;SDS011;4998;51.024;13.828;2023-04-25T13:51:16;9.77;;;3.20;;
9918;SDS011;4998;51.024;13.828;2023-04-25T13:53:43;12.07;;;3.83;;
9918;SDS011;4998;51.024;13.828;2023-04-25T13:56:10;7.03;;;3.83;;
9918;SDS011;4998;51.024;13.828;2023-04-25T13:58:38;11.50;;;3.50;;
9918;SDS011;4998;51.024;13.828;2023-04-25T14:01:06;7.10;;;2.93;;
9918;SDS011;4998;51.024;13.828;2023-04-25T14:03:34;14.37;;;3.60;;
9918;SDS011;4998;51.024;13.828;2023-04-25T14:06:00;4.93;;;2.77;;
9918;SDS011;4998;51.024;13.828;2023-04-25T14:08:29;7.03;;;3.17;;
9918;SDS011;4998;51.024;13.828;2023-04-25T14:10:56;3.70;;;2.57;;
9918;SDS011;4998;51.024;13.828;2023-04-25T14:13:23;7.57;;;3.33;;
9918;SDS011;4998;51.024;13.828;2023-04-25T14:15:50;5.43;;;2.53;;
9918;SDS011;4998;51.024;13.828;2023-04-25T14:18:19;8.30;;;3.90;;
9918;SDS011;4998;51.024;13.828;2023-04-25T14:20:46;4.30;;;2.90;;
9918;SDS011;4998;51.024;13.828;2023-04-25T14:23:13;5.63;;;3.40;;
9918;SDS011;4998;51.024;13.828;2023-04-25T14:25:40;6.20;;;2.50;;
9918;SDS011;4998;51.024;13.828;2023-04-25T14:28:08;7.30;;;2.80;;
9918;SDS011;4998;51.024;13.828;2023-04-25T14:30:36;10.10;;;2.90;;
9918;SDS011;4998;51.024;13.828;2023-04-25T14:33:03;10.03;;;2.90;;
9918;SDS011;4998;51.024;13.828;2023-04-25T14:35:31;7.27;;;3.40;;
9918;SDS011;4998;51.024;13.828;2023-04-25T14:37:58;6.07;;;2.80;;
9918;SDS011;4998;51.024;13.828;2023-04-25T14:40:25;9.70;;;3.50;;
9918;SDS011;4998;51.024;13.828;2023-04-25T14:42:53;5.17;;;3.00;;
9918;SDS011;4998;51.024;13.828;2023-04-25T14:45:20;5.97;;;3.00;;
9918;SDS011;4998;51.024;13.828;2023-04-25T14:47:47;5.40;;;2.60;;
9918;SDS011;4998;51.024;13.828;2023-04-25T14:50:14;6.47;;;3.20;;
9918;SDS011;4998;51.024;13.828;2023-04-25T14:52:43;6.57;;;3.17;;
9918;SDS011;4998;51.024;13.828;2023-04-25T14:55:10;6.03;;;3.10;;
9918;SDS011;4998;51.024;13.828;2023-04-25T14:57:37;5.50;;;2.90;;
9918;SDS011;4998;51.024;13.828;2023-04-25T15:00:05;7.40;;;3.00;;
9918;SDS011;4998;51.024;13.828;2023-04-25T15:02:34;8.63;;;3.63;;
9918;SDS011;4998;51.024;13.828;2023-04-25T15:05:01;6.30;;;3.30;;
9918;SDS011;4998;51.024;13.828;2023-04-25T15:07:29;7.77;;;3.30;;
9918;SDS011;4998;51.024;13.828;2023-04-25T15:09:58;7.30;;;3.33;;